sensor_id;sensor_type;location;lat;lon;timestamp;P1;durP1;ratioP1;P2;durP2;ratioP2
42192;SDS011;52467;40.114;18.306;2023-07-20T00:00:09;12.67;;;6.80;;
42192;SDS011;52467;40.114;18.306;2023-07-20T00:02:40;15.50;;;6.78;;
42192;SDS011;52467;40.114;18.306;2023-07-20T00:05:07;12.48;;;6.95;;
42192;SDS011;52467;40.114;18.306;2023-07-20T00:07:35;12.80;;;5.97;;
42192;SDS011;52467;40.114;18.306;2023-07-20T00:10:02;11.07;;;6.53;;
42192;SDS011;52467;40.114;18.306;2023-07-20T00:12:30;13.13;;;7.10;;
42192;SDS011;52467;40.114;18.306;2023-07-20T00:14:57;14.15;;;7.22;;
42192;SDS011;52467;40.114;18.306;2023-07-20T00:17:24;12.75;;;7.07;;
42192;SDS011;52467;40.114;18.306;2023-07-20T00:19:52;14.20;;;6.78;;
42192;SDS011;52467;40.114;18.306;2023-07-20T00:22:19;13.95;;;6.35;;
42192;SDS011;52467;40.114;18.306;2023-07-20T00:24:46;15.50;;;6.67;;
42192;SDS011;52467;40.114;18.306;2023-07-20T00:27:14;16.75;;;7.20;;
42192;SDS011;52467;40.114;18.306;2023-07-20T00:29:41;13.73;;;6.80;;
42192;SDS011;52467;40.114;18.306;2023-07-20T00:32:09;10.75;;;6.28;;
42192;SDS011;52467;40.114;18.306;2023-07-20T00:34:36;11.05;;;6.35;;
42192;SDS011;52467;40.114;18.306;2023-07-20T00:37:03;12.35;;;5.70;;
42192;SDS011;52467;40.114;18.306;2023-07-20T00:39:31;13.63;;;5.78;;
42192;SDS011;52467;40.114;18.306;2023-07-20T00:41:58;12.40;;;5.82;;
42192;SDS011;52467;40.114;18.306;2023-07-20T00:44:27;10.35;;;5.30;;
42192;SDS011;52467;40.114;18.306;2023-07-20T00:46:54;11.87;;;5.83;;
42192;SDS011;52467;40.114;18.306;2023-07-20T00:49:22;11.80;;;6.63;;
42192;SDS011;52467;40.114;18.306;2023-07-20T00:51:50;13.02;;;6.00;;
42192;SDS011;52467;40.114;18.306;2023-07-20T00:54:18;16.00;;;5.85;;
42192;SDS011;52467;40.114;18.306;2023-07-20T00:56:45;15.60;;;6.27;;
42192;SDS011;52467;40.114;18.306;2023-07-20T00:59:12;12.18;;;5.18;;
42192;SDS011;52467;40.114;18.306;2023-07-20T01:01:40;9.73;;;5.57;;
42192;SDS011;52467;40.114;18.306;2023-07-20T01:04:08;15.05;;;5.40;;
42192;SDS011;52467;40.114;18.306;2023-07-20T01:09:12;15.80;;;5.93;;
42192;SDS011;52467;40.114;18.306;2023-07-20T01:14:10;13.88;;;5.55;;
42192;SDS011;52467;40.114;18.306;2023-07-20T01:16:39;15.27;;;6.25;;
42192;SDS011;52467;40.114;18.306;2023-07-20T01:19:06;14.15;;;6.13;;
42192;SDS011;52467;40.114;18.306;2023-07-20T01:21:40;10.18;;;5.70;;
42192;SDS011;52467;40.114;18.306;2023-07-20T01:29:43;13.10;;;6.60;;
42192;SDS011;52467;40.114;18.306;2023-07-20T01:32:13;16.52;;;6.97;;
42192;SDS011;52467;40.114;18.306;2023-07-20T01:34:43;12.43;;;6.80;;
42192;SDS011;52467;40.114;18.306;2023-07-20T01:37:11;12.63;;;6.70;;
42192;SDS011;52467;40.114;18.306;2023-07-20T01:39:38;12.88;;;6.10;;
42192;SDS011;52467;40.114;18.306;2023-07-20T01:42:06;13.02;;;6.10;;
42192;SDS011;52467;40.114;18.306;2023-07-20T01:44:33;12.27;;;5.90;;
42192;SDS011;52467;40.114;18.306;2023-07-20T01:47:01;12.15;;;5.72;;
42192;SDS011;52467;40.114;18.306;2023-07-20T01:49:28;9.02;;;5.40;;
42192;SDS011;52467;40.114;18.306;2023-07-20T01:51:56;13.80;;;5.33;;
42192;SDS011;52467;40.114;18.306;2023-07-20T01:54:24;10.48;;;5.55;;
42192;SDS011;52467;40.114;18.306;2023-07-20T01:56:51;12.55;;;5.45;;
42192;SDS011;52467;40.114;18.306;2023-07-20T01:59:18;14.98;;;5.80;;
42192;SDS011;52467;40.114;18.306;2023-07-20T02:01:46;13.00;;;5.40;;
42192;SDS011;52467;40.114;18.306;2023-07-20T02:04:13;12.40;;;5.60;;
42192;SDS011;52467;40.114;18.306;2023-07-20T02:06:41;16.02;;;6.35;;
42192;SDS011;52467;40.114;18.306;2023-07-20T02:09:10;15.50;;;5.90;;
42192;SDS011;52467;40.114;18.306;2023-07-20T02:11:37;16.73;;;5.80;;
42192;SDS011;52467;40.114;18.306;2023-07-20T02:14:06;12.05;;;5.70;;
42192;SDS011;52467;40.114;18.306;2023-07-20T02:16:33;15.20;;;6.20;;
42192;SDS011;52467;40.114;18.306;2023-07-20T02:19:00;13.35;;;5.78;;
42192;SDS011;52467;40.114;18.306;2023-07-20T02:21:28;16.90;;;6.22;;
42192;SDS011;52467;40.114;18.306;2023-07-20T02:23:55;16.13;;;6.10;;
42192;SDS011;52467;40.114;18.306;2023-07-20T02:26:22;15.50;;;6.28;;
42192;SDS011;52467;40.114;18.306;2023-07-20T02:28:50;13.18;;;5.75;;
42192;SDS011;52467;40.114;18.306;2023-07-20T02:31:18;11.38;;;6.15;;
42192;SDS011;52467;40.114;18.306;2023-07-20T02:33:45;15.52;;;6.13;;
42192;SDS011;52467;40.114;18.306;2023-07-20T02:36:12;17.98;;;6.25;;
42192;SDS011;52467;40.114;18.306;2023-07-20T02:38:40;16.47;;;6.10;;
42192;SDS011;52467;40.114;18.306;2023-07-20T02:41:07;19.35;;;6.55;;
42192;SDS011;52467;40.114;18.306;2023-07-20T02:43:35;13.23;;;6.43;;
42192;SDS011;52467;40.114;18.306;2023-07-20T02:46:02;11.27;;;5.97;;
42192;SDS011;52467;40.114;18.306;2023-07-20T02:48:31;13.80;;;6.35;;
42192;SDS011;52467;40.114;18.306;2023-07-20T02:50:59;12.55;;;6.40;;
42192;SDS011;52467;40.114;18.306;2023-07-20T02:53:26;15.48;;;6.38;;
42192;SDS011;52467;40.114;18.306;2023-07-20T02:55:54;14.05;;;5.63;;
42192;SDS011;52467;40.114;18.306;2023-07-20T02:58:21;12.13;;;5.88;;
42192;SDS011;52467;40.114;18.306;2023-07-20T03:00:49;14.20;;;5.38;;
42192;SDS011;52467;40.114;18.306;2023-07-20T03:03:16;15.20;;;5.70;;
42192;SDS011;52467;40.114;18.306;2023-07-20T03:05:43;12.05;;;5.30;;
42192;SDS011;52467;40.114;18.306;2023-07-20T03:08:11;12.52;;;6.30;;
42192;SDS011;52467;40.114;18.306;2023-07-20T03:10:39;13.10;;;5.40;;
42192;SDS011;52467;40.114;18.306;2023-07-20T03:13:07;9.82;;;5.15;;
42192;SDS011;52467;40.114;18.306;2023-07-20T03:15:34;9.87;;;4.93;;
42192;SDS011;52467;40.114;18.306;2023-07-20T03:18:02;10.73;;;4.97;;
42192;SDS011;52467;40.114;18.306;2023-07-20T03:20:30;12.52;;;5.22;;
42192;SDS011;52467;40.114;18.306;2023-07-20T03:22:58;10.37;;;4.90;;
42192;SDS011;52467;40.114;18.306;2023-07-20T03:25:25;9.95;;;5.10;;
42192;SDS011;52467;40.114;18.306;2023-07-20T03:27:54;10.43;;;5.33;;
42192;SDS011;52467;40.114;18.306;2023-07-20T03:30:21;15.10;;;5.72;;
42192;SDS011;52467;40.114;18.306;2023-07-20T03:32:50;9.98;;;5.05;;
42192;SDS011;52467;40.114;18.306;2023-07-20T03:35:17;11.68;;;5.35;;
42192;SDS011;52467;40.114;18.306;2023-07-20T03:37:45;10.00;;;4.97;;
42192;SDS011;52467;40.114;18.306;2023-07-20T03:40:12;15.45;;;5.22;;
42192;SDS011;52467;40.114;18.306;2023-07-20T03:42:41;12.80;;;5.65;;
42192;SDS011;52467;40.114;18.306;2023-07-20T03:45:08;12.25;;;5.18;;
42192;SDS011;52467;40.114;18.306;2023-07-20T03:47:36;11.00;;;6.25;;
42192;SDS011;52467;40.114;18.306;2023-07-20T03:50:03;9.93;;;5.05;;
42192;SDS011;52467;40.114;18.306;2023-07-20T03:52:32;12.27;;;6.00;;
42192;SDS011;52467;40.114;18.306;2023-07-20T03:54:59;11.33;;;5.80;;
42192;SDS011;52467;40.114;18.306;2023-07-20T03:57:27;12.43;;;4.90;;
42192;SDS011;52467;40.114;18.306;2023-07-20T03:59:54;10.85;;;4.75;;
42192;SDS011;52467;40.114;18.306;2023-07-20T04:02:22;13.23;;;5.27;;
42192;SDS011;52467;40.114;18.306;2023-07-20T04:04:49;11.63;;;4.82;;
42192;SDS011;52467;40.114;18.306;2023-07-20T04:07:17;12.15;;;5.47;;
42192;SDS011;52467;40.114;18.306;2023-07-20T04:09:45;13.52;;;4.80;;
42192;SDS011;52467;40.114;18.306;2023-07-20T04:12:12;12.90;;;4.77;;
42192;SDS011;52467;40.114;18.306;2023-07-20T04:14:39;10.02;;;4.97;;
42192;SDS011;52467;40.114;18.306;2023-07-20T04:17:07;9.43;;;4.60;;
42192;SDS011;52467;40.114;18.306;2023-07-20T04:19:34;9.35;;;4.30;;
42192;SDS011;52467;40.114;18.306;2023-07-20T04:22:02;15.40;;;4.78;;
42192;SDS011;52467;40.114;18.306;2023-07-20T04:24:30;10.73;;;4.40;;
42192;SDS011;52467;40.114;18.306;2023-07-20T04:26:57;13.65;;;4.95;;
42192;SDS011;52467;40.114;18.306;2023-07-20T04:29:24;10.77;;;4.40;;
42192;SDS011;52467;40.114;18.306;2023-07-20T04:31:52;10.57;;;4.30;;
42192;SDS011;52467;40.114;18.306;2023-07-20T04:34:20;8.30;;;4.57;;
42192;SDS011;52467;40.114;18.306;2023-07-20T04:36:47;11.55;;;4.60;;
42192;SDS011;52467;40.114;18.306;2023-07-20T04:39:15;8.82;;;5.05;;
42192;SDS011;52467;40.114;18.306;2023-07-20T04:41:48;7.73;;;4.80;;
42192;SDS011;52467;40.114;18.306;2023-07-20T04:44:16;11.00;;;4.83;;
42192;SDS011;52467;40.114;18.306;2023-07-20T04:46:44;10.00;;;4.57;;
42192;SDS011;52467;40.114;18.306;2023-07-20T04:49:12;8.25;;;4.88;;
42192;SDS011;52467;40.114;18.306;2023-07-20T04:51:42;11.93;;;4.77;;
42192;SDS011;52467;40.114;18.306;2023-07-20T04:54:09;11.10;;;4.72;;
42192;SDS011;52467;40.114;18.306;2023-07-20T04:56:37;7.75;;;4.45;;
42192;SDS011;52467;40.114;18.306;2023-07-20T04:59:08;8.70;;;4.30;;
42192;SDS011;52467;40.114;18.306;2023-07-20T05:01:35;8.60;;;5.03;;
42192;SDS011;52467;40.114;18.306;2023-07-20T05:04:03;9.25;;;4.47;;
42192;SDS011;52467;40.114;18.306;2023-07-20T05:06:30;8.63;;;4.50;;
42192;SDS011;52467;40.114;18.306;2023-07-20T05:08:59;9.10;;;4.38;;
42192;SDS011;52467;40.114;18.306;2023-07-20T05:11:27;9.60;;;4.22;;
42192;SDS011;52467;40.114;18.306;2023-07-20T05:13:54;8.07;;;3.85;;
42192;SDS011;52467;40.114;18.306;2023-07-20T05:16:22;9.25;;;3.70;;
42192;SDS011;52467;40.114;18.306;2023-07-20T05:18:49;7.72;;;4.05;;
42192;SDS011;52467;40.114;18.306;2023-07-20T05:21:18;12.50;;;4.00;;
42192;SDS011;52467;40.114;18.306;2023-07-20T05:23:45;11.00;;;3.97;;
42192;SDS011;52467;40.114;18.306;2023-07-20T05:26:13;7.32;;;3.72;;
42192;SDS011;52467;40.114;18.306;2023-07-20T05:28:41;8.15;;;3.50;;
42192;SDS011;52467;40.114;18.306;2023-07-20T05:31:09;9.65;;;3.58;;
42192;SDS011;52467;40.114;18.306;2023-07-20T05:33:36;10.95;;;3.50;;
42192;SDS011;52467;40.114;18.306;2023-07-20T05:36:03;8.15;;;3.10;;
42192;SDS011;52467;40.114;18.306;2023-07-20T05:38:31;7.60;;;2.92;;
42192;SDS011;52467;40.114;18.306;2023-07-20T05:41:00;5.25;;;2.88;;
42192;SDS011;52467;40.114;18.306;2023-07-20T05:43:29;6.85;;;2.50;;
42192;SDS011;52467;40.114;18.306;2023-07-20T05:45:57;6.50;;;2.60;;
42192;SDS011;52467;40.114;18.306;2023-07-20T05:48:24;5.60;;;2.42;;
42192;SDS011;52467;40.114;18.306;2023-07-20T05:50:51;8.25;;;2.55;;
42192;SDS011;52467;40.114;18.306;2023-07-20T05:53:19;3.92;;;1.88;;
42192;SDS011;52467;40.114;18.306;2023-07-20T05:55:51;5.25;;;2.00;;
42192;SDS011;52467;40.114;18.306;2023-07-20T05:58:21;4.90;;;1.70;;
42192;SDS011;52467;40.114;18.306;2023-07-20T06:00:50;2.80;;;1.65;;
42192;SDS011;52467;40.114;18.306;2023-07-20T06:03:17;2.53;;;1.30;;
42192;SDS011;52467;40.114;18.306;2023-07-20T06:05:45;4.20;;;1.20;;
42192;SDS011;52467;40.114;18.306;2023-07-20T06:08:12;1.45;;;0.90;;
42192;SDS011;52467;40.114;18.306;2023-07-20T06:10:39;2.92;;;0.90;;
42192;SDS011;52467;40.114;18.306;2023-07-20T06:13:09;1.90;;;0.63;;
42192;SDS011;52467;40.114;18.306;2023-07-20T06:15:36;2.10;;;0.70;;
42192;SDS011;52467;40.114;18.306;2023-07-20T06:18:05;0.70;;;0.40;;
42192;SDS011;52467;40.114;18.306;2023-07-20T06:20:33;0.80;;;0.50;;
42192;SDS011;52467;40.114;18.306;2023-07-20T06:23:00;0.80;;;0.40;;
42192;SDS011;52467;40.114;18.306;2023-07-20T06:25:27;0.95;;;0.30;;
42192;SDS011;52467;40.114;18.306;2023-07-20T06:27:55;0.50;;;0.30;;
42192;SDS011;52467;40.114;18.306;2023-07-20T06:30:24;0.20;;;0.20;;
42192;SDS011;52467;40.114;18.306;2023-07-20T06:32:51;0.45;;;0.20;;
42192;SDS011;52467;40.114;18.306;2023-07-20T06:35:18;1.00;;;0.40;;
42192;SDS011;52467;40.114;18.306;2023-07-20T06:37:46;0.63;;;0.40;;
42192;SDS011;52467;40.114;18.306;2023-07-20T06:40:13;0.50;;;0.30;;
42192;SDS011;52467;40.114;18.306;2023-07-20T06:42:43;0.30;;;0.30;;
42192;SDS011;52467;40.114;18.306;2023-07-20T06:45:13;0.20;;;0.20;;
42192;SDS011;52467;40.114;18.306;2023-07-20T06:47:41;0.15;;;0.10;;
42192;SDS011;52467;40.114;18.306;2023-07-20T06:50:08;0.23;;;0.20;;
42192;SDS011;52467;40.114;18.306;2023-07-20T06:52:42;0.17;;;0.17;;
42192;SDS011;52467;40.114;18.306;2023-07-20T06:55:09;0.13;;;0.10;;
42192;SDS011;52467;40.114;18.306;2023-07-20T06:57:36;0.20;;;0.20;;
42192;SDS011;52467;40.114;18.306;2023-07-20T07:00:04;0.60;;;0.10;;
42192;SDS011;52467;40.114;18.306;2023-07-20T07:02:33;0.20;;;0.10;;
42192;SDS011;52467;40.114;18.306;2023-07-20T07:05:01;0.10;;;0.10;;
42192;SDS011;52467;40.114;18.306;2023-07-20T07:07:45;0.10;;;0.10;;
42192;SDS011;52467;40.114;18.306;2023-07-20T07:10:12;0.20;;;0.17;;
42192;SDS011;52467;40.114;18.306;2023-07-20T07:12:40;0.10;;;0.10;;
42192;SDS011;52467;40.114;18.306;2023-07-20T07:15:07;0.10;;;0.10;;
42192;SDS011;52467;40.114;18.306;2023-07-20T07:17:37;0.10;;;0.10;;
42192;SDS011;52467;40.114;18.306;2023-07-20T07:20:05;0.10;;;0.10;;
42192;SDS011;52467;40.114;18.306;2023-07-20T07:22:36;0.10;;;0.10;;
42192;SDS011;52467;40.114;18.306;2023-07-20T07:25:03;0.10;;;0.10;;
42192;SDS011;52467;40.114;18.306;2023-07-20T07:27:31;0.10;;;0.10;;
42192;SDS011;52467;40.114;18.306;2023-07-20T07:29:58;0.10;;;0.10;;
42192;SDS011;52467;40.114;18.306;2023-07-20T07:32:25;0.20;;;0.15;;
42192;SDS011;52467;40.114;18.306;2023-07-20T07:34:53;0.10;;;0.10;;
42192;SDS011;52467;40.114;18.306;2023-07-20T07:37:20;0.10;;;0.10;;
42192;SDS011;52467;40.114;18.306;2023-07-20T07:39:47;0.10;;;0.10;;
42192;SDS011;52467;40.114;18.306;2023-07-20T07:42:15;0.20;;;0.10;;
42192;SDS011;52467;40.114;18.306;2023-07-20T07:44:42;0.10;;;0.10;;
42192;SDS011;52467;40.114;18.306;2023-07-20T07:47:10;0.17;;;0.10;;
42192;SDS011;52467;40.114;18.306;2023-07-20T07:49:39;0.10;;;0.10;;
42192;SDS011;52467;40.114;18.306;2023-07-20T07:52:06;0.10;;;0.10;;
42192;SDS011;52467;40.114;18.306;2023-07-20T07:54:34;0.10;;;0.10;;
42192;SDS011;52467;40.114;18.306;2023-07-20T07:57:01;0.10;;;0.10;;
42192;SDS011;52467;40.114;18.306;2023-07-20T07:59:28;0.10;;;0.10;;
42192;SDS011;52467;40.114;18.306;2023-07-20T08:01:58;0.10;;;0.10;;
42192;SDS011;52467;40.114;18.306;2023-07-20T08:04:25;0.10;;;0.10;;
42192;SDS011;52467;40.114;18.306;2023-07-20T08:06:52;0.10;;;0.10;;
42192;SDS011;52467;40.114;18.306;2023-07-20T08:09:19;0.10;;;0.10;;
42192;SDS011;52467;40.114;18.306;2023-07-20T08:11:47;0.10;;;0.10;;
42192;SDS011;52467;40.114;18.306;2023-07-20T08:14:15;0.00;;;0.00;;
42192;SDS011;52467;40.114;18.306;2023-07-20T08:16:42;0.20;;;0.20;;
42192;SDS011;52467;40.114;18.306;2023-07-20T08:19:09;0.10;;;0.10;;
42192;SDS011;52467;40.114;18.306;2023-07-20T08:21:37;0.10;;;0.10;;
42192;SDS011;52467;40.114;18.306;2023-07-20T08:24:04;0.10;;;0.10;;
42192;SDS011;52467;40.114;18.306;2023-07-20T08:26:32;0.10;;;0.10;;
42192;SDS011;52467;40.114;18.306;2023-07-20T08:28:59;0.10;;;0.10;;
42192;SDS011;52467;40.114;18.306;2023-07-20T08:31:26;0.10;;;0.10;;
42192;SDS011;52467;40.114;18.306;2023-07-20T08:33:54;0.08;;;0.08;;
42192;SDS011;52467;40.114;18.306;2023-07-20T08:36:23;0.10;;;0.10;;
42192;SDS011;52467;40.114;18.306;2023-07-20T08:38:51;0.10;;;0.10;;
42192;SDS011;52467;40.114;18.306;2023-07-20T08:41:18;0.10;;;0.10;;
42192;SDS011;52467;40.114;18.306;2023-07-20T08:43:47;0.10;;;0.10;;
42192;SDS011;52467;40.114;18.306;2023-07-20T08:46:15;0.10;;;0.10;;
42192;SDS011;52467;40.114;18.306;2023-07-20T08:48:43;0.10;;;0.10;;
42192;SDS011;52467;40.114;18.306;2023-07-20T08:51:10;0.10;;;0.10;;
42192;SDS011;52467;40.114;18.306;2023-07-20T08:53:39;0.10;;;0.10;;
42192;SDS011;52467;40.114;18.306;2023-07-20T08:56:06;0.10;;;0.10;;
42192;SDS011;52467;40.114;18.306;2023-07-20T08:58:37;0.10;;;0.10;;
42192;SDS011;52467;40.114;18.306;2023-07-20T09:01:05;0.10;;;0.10;;
42192;SDS011;52467;40.114;18.306;2023-07-20T09:03:33;0.10;;;0.10;;
42192;SDS011;52467;40.114;18.306;2023-07-20T09:06:00;0.10;;;0.10;;
42192;SDS011;52467;40.114;18.306;2023-07-20T09:08:28;0.10;;;0.10;;
42192;SDS011;52467;40.114;18.306;2023-07-20T09:10:55;0.10;;;0.10;;
42192;SDS011;52467;40.114;18.306;2023-07-20T09:13:24;0.10;;;0.10;;
42192;SDS011;52467;40.114;18.306;2023-07-20T09:15:55;0.10;;;0.10;;
42192;SDS011;52467;40.114;18.306;2023-07-20T09:18:26;0.10;;;0.10;;
42192;SDS011;52467;40.114;18.306;2023-07-20T09:21:00;0.10;;;0.10;;
42192;SDS011;52467;40.114;18.306;2023-07-20T09:23:38;0.10;;;0.10;;
42192;SDS011;52467;40.114;18.306;2023-07-20T09:26:12;0.10;;;0.10;;
42192;SDS011;52467;40.114;18.306;2023-07-20T09:28:51;0.10;;;0.10;;
42192;SDS011;52467;40.114;18.306;2023-07-20T09:31:20;0.10;;;0.10;;
42192;SDS011;52467;40.114;18.306;2023-07-20T09:33:48;0.10;;;0.10;;
42192;SDS011;52467;40.114;18.306;2023-07-20T09:36:19;0.10;;;0.10;;
42192;SDS011;52467;40.114;18.306;2023-07-20T09:39:07;0.10;;;0.10;;
42192;SDS011;52467;40.114;18.306;2023-07-20T09:41:39;0.10;;;0.10;;
42192;SDS011;52467;40.114;18.306;2023-07-20T09:44:11;0.10;;;0.10;;
42192;SDS011;52467;40.114;18.306;2023-07-20T09:46:49;0.10;;;0.10;;
42192;SDS011;52467;40.114;18.306;2023-07-20T09:49:20;0.10;;;0.10;;
42192;SDS011;52467;40.114;18.306;2023-07-20T09:51:50;0.10;;;0.10;;
42192;SDS011;52467;40.114;18.306;2023-07-20T09:54:21;0.10;;;0.10;;
42192;SDS011;52467;40.114;18.306;2023-07-20T09:56:50;0.10;;;0.10;;
42192;SDS011;52467;40.114;18.306;2023-07-20T09:59:19;0.10;;;0.10;;
42192;SDS011;52467;40.114;18.306;2023-07-20T10:01:46;0.10;;;0.10;;
42192;SDS011;52467;40.114;18.306;2023-07-20T10:04:14;0.10;;;0.10;;
42192;SDS011;52467;40.114;18.306;2023-07-20T10:06:43;0.10;;;0.10;;
42192;SDS011;52467;40.114;18.306;2023-07-20T10:09:14;0.10;;;0.10;;
42192;SDS011;52467;40.114;18.306;2023-07-20T10:11:43;0.10;;;0.10;;
42192;SDS011;52467;40.114;18.306;2023-07-20T10:14:13;0.10;;;0.10;;
42192;SDS011;52467;40.114;18.306;2023-07-20T10:16:50;0.10;;;0.10;;
42192;SDS011;52467;40.114;18.306;2023-07-20T10:19:26;0.10;;;0.10;;
42192;SDS011;52467;40.114;18.306;2023-07-20T10:22:06;0.10;;;0.10;;
42192;SDS011;52467;40.114;18.306;2023-07-20T10:24:38;0.10;;;0.10;;
42192;SDS011;52467;40.114;18.306;2023-07-20T10:27:06;0.10;;;0.10;;
42192;SDS011;52467;40.114;18.306;2023-07-20T10:29:33;0.10;;;0.10;;
42192;SDS011;52467;40.114;18.306;2023-07-20T10:32:01;0.10;;;0.10;;
42192;SDS011;52467;40.114;18.306;2023-07-20T10:34:28;0.10;;;0.10;;
42192;SDS011;52467;40.114;18.306;2023-07-20T10:36:56;0.10;;;0.10;;
42192;SDS011;52467;40.114;18.306;2023-07-20T10:39:32;0.10;;;0.10;;
42192;SDS011;52467;40.114;18.306;2023-07-20T10:42:07;0.10;;;0.10;;
42192;SDS011;52467;40.114;18.306;2023-07-20T10:44:37;0.10;;;0.10;;
42192;SDS011;52467;40.114;18.306;2023-07-20T10:47:09;0.10;;;0.10;;
42192;SDS011;52467;40.114;18.306;2023-07-20T10:49:57;0.10;;;0.10;;
42192;SDS011;52467;40.114;18.306;2023-07-20T10:52:25;0.10;;;0.10;;
42192;SDS011;52467;40.114;18.306;2023-07-20T10:54:53;0.10;;;0.10;;
42192;SDS011;52467;40.114;18.306;2023-07-20T10:59:51;0.10;;;0.10;;
42192;SDS011;52467;40.114;18.306;2023-07-20T11:02:19;0.10;;;0.10;;
42192;SDS011;52467;40.114;18.306;2023-07-20T11:04:49;0.10;;;0.10;;
42192;SDS011;52467;40.114;18.306;2023-07-20T11:07:17;0.10;;;0.10;;
42192;SDS011;52467;40.114;18.306;2023-07-20T11:09:48;0.10;;;0.10;;
42192;SDS011;52467;40.114;18.306;2023-07-20T11:12:16;0.10;;;0.10;;
42192;SDS011;52467;40.114;18.306;2023-07-20T11:14:54;0.10;;;0.10;;
42192;SDS011;52467;40.114;18.306;2023-07-20T11:17:32;0.10;;;0.10;;
42192;SDS011;52467;40.114;18.306;2023-07-20T11:20:00;0.10;;;0.10;;
42192;SDS011;52467;40.114;18.306;2023-07-20T11:22:32;0.20;;;0.20;;
42192;SDS011;52467;40.114;18.306;2023-07-20T11:24:59;0.10;;;0.10;;
42192;SDS011;52467;40.114;18.306;2023-07-20T11:27:27;0.10;;;0.10;;
42192;SDS011;52467;40.114;18.306;2023-07-20T11:29:55;0.20;;;0.20;;
42192;SDS011;52467;40.114;18.306;2023-07-20T11:32:23;0.10;;;0.10;;
42192;SDS011;52467;40.114;18.306;2023-07-20T11:34:51;0.10;;;0.10;;
42192;SDS011;52467;40.114;18.306;2023-07-20T11:37:18;0.10;;;0.10;;
42192;SDS011;52467;40.114;18.306;2023-07-20T11:39:46;0.10;;;0.10;;
42192;SDS011;52467;40.114;18.306;2023-07-20T11:42:13;0.17;;;0.17;;
42192;SDS011;52467;40.114;18.306;2023-07-20T11:45:02;0.10;;;0.10;;
42192;SDS011;52467;40.114;18.306;2023-07-20T11:47:32;0.20;;;0.20;;
42192;SDS011;52467;40.114;18.306;2023-07-20T11:50:03;0.20;;;0.20;;
42192;SDS011;52467;40.114;18.306;2023-07-20T11:52:30;0.20;;;0.20;;
42192;SDS011;52467;40.114;18.306;2023-07-20T11:54:58;0.20;;;0.20;;
42192;SDS011;52467;40.114;18.306;2023-07-20T11:57:25;0.20;;;0.20;;
42192;SDS011;52467;40.114;18.306;2023-07-20T11:59:53;0.20;;;0.20;;
42192;SDS011;52467;40.114;18.306;2023-07-20T12:02:24;0.20;;;0.20;;
42192;SDS011;52467;40.114;18.306;2023-07-20T12:04:54;0.20;;;0.20;;
42192;SDS011;52467;40.114;18.306;2023-07-20T12:07:22;0.30;;;0.30;;
42192;SDS011;52467;40.114;18.306;2023-07-20T12:10:05;0.30;;;0.30;;
42192;SDS011;52467;40.114;18.306;2023-07-20T12:12:42;0.40;;;0.40;;
42192;SDS011;52467;40.114;18.306;2023-07-20T12:17:49;0.60;;;0.60;;
42192;SDS011;52467;40.114;18.306;2023-07-20T12:22:56;0.70;;;0.70;;
42192;SDS011;52467;40.114;18.306;2023-07-20T12:25:33;0.80;;;0.80;;
42192;SDS011;52467;40.114;18.306;2023-07-20T12:28:13;0.98;;;0.98;;
42192;SDS011;52467;40.114;18.306;2023-07-20T12:30:44;1.00;;;1.00;;
42192;SDS011;52467;40.114;18.306;2023-07-20T12:33:13;1.10;;;1.10;;
42192;SDS011;52467;40.114;18.306;2023-07-20T12:35:44;1.20;;;1.20;;
42192;SDS011;52467;40.114;18.306;2023-07-20T12:38:12;1.30;;;1.30;;
42192;SDS011;52467;40.114;18.306;2023-07-20T12:40:39;1.50;;;1.50;;
42192;SDS011;52467;40.114;18.306;2023-07-20T12:43:07;1.50;;;1.50;;
42192;SDS011;52467;40.114;18.306;2023-07-20T12:45:34;1.60;;;1.60;;
42192;SDS011;52467;40.114;18.306;2023-07-20T12:48:02;1.80;;;1.80;;
42192;SDS011;52467;40.114;18.306;2023-07-20T12:50:29;1.80;;;1.80;;
42192;SDS011;52467;40.114;18.306;2023-07-20T12:52:57;1.90;;;1.90;;
42192;SDS011;52467;40.114;18.306;2023-07-20T12:55:24;2.20;;;2.10;;
42192;SDS011;52467;40.114;18.306;2023-07-20T12:57:51;2.40;;;2.30;;
42192;SDS011;52467;40.114;18.306;2023-07-20T13:00:19;2.60;;;2.50;;
42192;SDS011;52467;40.114;18.306;2023-07-20T13:02:46;3.10;;;3.00;;
42192;SDS011;52467;40.114;18.306;2023-07-20T13:05:14;3.13;;;3.03;;
42192;SDS011;52467;40.114;18.306;2023-07-20T13:07:42;3.50;;;3.40;;
42192;SDS011;52467;40.114;18.306;2023-07-20T13:10:12;3.90;;;3.80;;
42192;SDS011;52467;40.114;18.306;2023-07-20T13:12:40;4.30;;;4.10;;
42192;SDS011;52467;40.114;18.306;2023-07-20T13:15:08;4.43;;;4.23;;
42192;SDS011;52467;40.114;18.306;2023-07-20T13:17:37;4.50;;;4.30;;
42192;SDS011;52467;40.114;18.306;2023-07-20T13:20:06;4.50;;;4.30;;
42192;SDS011;52467;40.114;18.306;2023-07-20T13:22:36;4.97;;;4.78;;
42192;SDS011;52467;40.114;18.306;2023-07-20T13:25:05;5.10;;;4.90;;
42192;SDS011;52467;40.114;18.306;2023-07-20T13:27:33;5.22;;;5.03;;
42192;SDS011;52467;40.114;18.306;2023-07-20T13:30:01;5.50;;;5.30;;
42192;SDS011;52467;40.114;18.306;2023-07-20T13:32:33;5.40;;;5.20;;
42192;SDS011;52467;40.114;18.306;2023-07-20T13:35:01;5.53;;;5.32;;
42192;SDS011;52467;40.114;18.306;2023-07-20T13:37:28;6.07;;;5.80;;
42192;SDS011;52467;40.114;18.306;2023-07-20T13:39:56;6.40;;;6.10;;
42192;SDS011;52467;40.114;18.306;2023-07-20T13:42:23;6.70;;;6.40;;
42192;SDS011;52467;40.114;18.306;2023-07-20T13:44:51;6.80;;;6.50;;
42192;SDS011;52467;40.114;18.306;2023-07-20T13:47:18;7.20;;;6.90;;
42192;SDS011;52467;40.114;18.306;2023-07-20T13:49:47;7.90;;;7.60;;
42192;SDS011;52467;40.114;18.306;2023-07-20T13:52:15;8.60;;;8.20;;
42192;SDS011;52467;40.114;18.306;2023-07-20T13:54:45;8.80;;;8.40;;
42192;SDS011;52467;40.114;18.306;2023-07-20T13:57:13;9.52;;;9.13;;
42192;SDS011;52467;40.114;18.306;2023-07-20T13:59:42;9.23;;;8.82;;
42192;SDS011;52467;40.114;18.306;2023-07-20T14:02:10;9.70;;;9.30;;
42192;SDS011;52467;40.114;18.306;2023-07-20T14:04:40;10.30;;;9.80;;
42192;SDS011;52467;40.114;18.306;2023-07-20T14:07:08;10.10;;;9.70;;
42192;SDS011;52467;40.114;18.306;2023-07-20T14:09:35;9.85;;;9.45;;
42192;SDS011;52467;40.114;18.306;2023-07-20T14:12:03;9.70;;;9.30;;
42192;SDS011;52467;40.114;18.306;2023-07-20T14:14:33;10.17;;;9.70;;
42192;SDS011;52467;40.114;18.306;2023-07-20T14:17:01;9.70;;;9.30;;
42192;SDS011;52467;40.114;18.306;2023-07-20T14:19:28;9.88;;;9.48;;
42192;SDS011;52467;40.114;18.306;2023-07-20T14:21:55;9.95;;;9.55;;
42192;SDS011;52467;40.114;18.306;2023-07-20T14:24:25;9.93;;;9.52;;
42192;SDS011;52467;40.114;18.306;2023-07-20T14:26:53;10.10;;;9.68;;
42192;SDS011;52467;40.114;18.306;2023-07-20T14:29:21;9.80;;;9.40;;
42192;SDS011;52467;40.114;18.306;2023-07-20T14:31:50;9.70;;;9.30;;
42192;SDS011;52467;40.114;18.306;2023-07-20T14:34:19;9.70;;;9.30;;
42192;SDS011;52467;40.114;18.306;2023-07-20T14:36:46;9.90;;;9.50;;
42192;SDS011;52467;40.114;18.306;2023-07-20T14:39:14;9.50;;;9.10;;
42192;SDS011;52467;40.114;18.306;2023-07-20T14:41:41;8.82;;;8.43;;
42192;SDS011;52467;40.114;18.306;2023-07-20T14:44:08;8.77;;;8.38;;
42192;SDS011;52467;40.114;18.306;2023-07-20T14:46:36;8.65;;;8.25;;
42192;SDS011;52467;40.114;18.306;2023-07-20T14:49:04;8.50;;;8.10;;
42192;SDS011;52467;40.114;18.306;2023-07-20T14:51:31;8.45;;;8.05;;
42192;SDS011;52467;40.114;18.306;2023-07-20T14:54:03;7.85;;;7.55;;
42192;SDS011;52467;40.114;18.306;2023-07-20T14:56:33;7.80;;;7.50;;